sensor_id;sensor_type;location;lat;lon;timestamp;temperature;humidity
15676;DHT22;7938;47.666;9.434;2023-03-01T05:05:45;0.80;99.90
15676;DHT22;7938;47.666;9.434;2023-03-01T05:08:13;0.80;99.90
15676;DHT22;7938;47.666;9.434;2023-03-01T05:10:44;0.80;99.90
15676;DHT22;7938;47.666;9.434;2023-03-01T05:13:13;0.80;99.90
15676;DHT22;7938;47.666;9.434;2023-03-01T05:15:47;0.70;99.90
15676;DHT22;7938;47.666;9.434;2023-03-01T05:18:15;0.70;99.90
15676;DHT22;7938;47.666;9.434;2023-03-01T05:20:42;0.70;99.90
15676;DHT22;7938;47.666;9.434;2023-03-01T05:23:10;0.70;99.90
15676;DHT22;7938;47.666;9.434;2023-03-01T05:25:37;0.70;99.90
15676;DHT22;7938;47.666;9.434;2023-03-01T05:28:07;0.70;99.90
15676;DHT22;7938;47.666;9.434;2023-03-01T05:30:40;0.70;99.90
15676;DHT22;7938;47.666;9.434;2023-03-01T05:33:11;0.70;99.90
15676;DHT22;7938;47.666;9.434;2023-03-01T05:35:43;1.30;99.90
15676;DHT22;7938;47.666;9.434;2023-03-01T05:38:16;0.70;99.90
15676;DHT22;7938;47.666;9.434;2023-03-01T05:40:48;0.70;99.90
15676;DHT22;7938;47.666;9.434;2023-03-01T05:43:17;0.80;99.90
15676;DHT22;7938;47.666;9.434;2023-03-01T05:45:46;0.80;99.90
15676;DHT22;7938;47.666;9.434;2023-03-01T05:48:19;0.80;99.90
15676;DHT22;7938;47.666;9.434;2023-03-01T05:50:47;0.90;99.90
15676;DHT22;7938;47.666;9.434;2023-03-01T05:53:17;0.90;99.90
15676;DHT22;7938;47.666;9.434;2023-03-01T05:55:48;1.00;99.90
15676;DHT22;7938;47.666;9.434;2023-03-01T05:58:19;1.00;99.90
15676;DHT22;7938;47.666;9.434;2023-03-01T06:00:48;1.00;99.90
15676;DHT22;7938;47.666;9.434;2023-03-01T06:03:18;1.00;99.90
15676;DHT22;7938;47.666;9.434;2023-03-01T06:05:48;0.90;99.90
15676;DHT22;7938;47.666;9.434;2023-03-01T06:08:15;0.80;99.90
15676;DHT22;7938;47.666;9.434;2023-03-01T06:10:43;0.70;99.90
15676;DHT22;7938;47.666;9.434;2023-03-01T06:13:09;0.70;99.90
15676;DHT22;7938;47.666;9.434;2023-03-01T06:15:37;0.80;99.90
15676;DHT22;7938;47.666;9.434;2023-03-01T06:18:09;1.20;99.90
15676;DHT22;7938;47.666;9.434;2023-03-01T06:20:40;0.90;99.90
15676;DHT22;7938;47.666;9.434;2023-03-01T06:23:07;0.90;99.90
15676;DHT22;7938;47.666;9.434;2023-03-01T06:25:37;0.90;99.90
15676;DHT22;7938;47.666;9.434;2023-03-01T06:28:05;0.90;99.90
15676;DHT22;7938;47.666;9.434;2023-03-01T06:30:34;0.80;99.90
15676;DHT22;7938;47.666;9.434;2023-03-01T06:33:20;0.70;99.90
15676;DHT22;7938;47.666;9.434;2023-03-01T06:35:55;1.00;99.90
15676;DHT22;7938;47.666;9.434;2023-03-01T06:38:24;0.80;99.90
15676;DHT22;7938;47.666;9.434;2023-03-01T06:40:55;0.80;99.90
15676;DHT22;7938;47.666;9.434;2023-03-01T06:43:24;0.70;99.90
15676;DHT22;7938;47.666;9.434;2023-03-01T06:45:58;0.70;99.90
15676;DHT22;7938;47.666;9.434;2023-03-01T06:48:28;0.70;99.90
15676;DHT22;7938;47.666;9.434;2023-03-01T06:51:10;0.80;99.90
15676;DHT22;7938;47.666;9.434;2023-03-01T06:53:42;0.80;99.90
15676;DHT22;7938;47.666;9.434;2023-03-01T06:56:14;0.90;99.90
15676;DHT22;7938;47.666;9.434;2023-03-01T06:58:43;0.80;99.90
15676;DHT22;7938;47.666;9.434;2023-03-01T07:01:30;1.00;99.90
15676;DHT22;7938;47.666;9.434;2023-03-01T07:04:10;1.00;99.90
15676;DHT22;7938;47.666;9.434;2023-03-01T07:07:08;1.00;99.90
15676;DHT22;7938;47.666;9.434;2023-03-01T07:09:42;1.00;99.90
15676;DHT22;7938;47.666;9.434;2023-03-01T07:12:19;1.00;99.90
15676;DHT22;7938;47.666;9.434;2023-03-01T07:14:51;1.00;99.90
15676;DHT22;7938;47.666;9.434;2023-03-01T07:17:31;1.00;99.90
15676;DHT22;7938;47.666;9.434;2023-03-01T07:20:03;1.10;99.90
15676;DHT22;7938;47.666;9.434;2023-03-01T07:22:35;1.10;99.90
15676;DHT22;7938;47.666;9.434;2023-03-01T07:25:10;1.50;99.90
15676;DHT22;7938;47.666;9.434;2023-03-01T07:27:41;1.10;99.90
15676;DHT22;7938;47.666;9.434;2023-03-01T07:30:12;1.10;99.90
15676;DHT22;7938;47.666;9.434;2023-03-01T07:32:49;1.10;99.90
15676;DHT22;7938;47.666;9.434;2023-03-01T07:35:26;1.10;99.90
15676;DHT22;7938;47.666;9.434;2023-03-01T07:37:58;1.10;99.90
15676;DHT22;7938;47.666;9.434;2023-03-01T07:40:45;1.10;99.90
15676;DHT22;7938;47.666;9.434;2023-03-01T07:43:14;1.10;99.90
15676;DHT22;7938;47.666;9.434;2023-03-01T07:45:44;1.10;99.90
15676;DHT22;7938;47.666;9.434;2023-03-01T07:48:23;1.10;99.90
15676;DHT22;7938;47.666;9.434;2023-03-01T07:50:51;1.00;99.90
15676;DHT22;7938;47.666;9.434;2023-03-01T07:53:22;1.00;99.90
15676;DHT22;7938;47.666;9.434;2023-03-01T07:55:59;0.90;99.90
15676;DHT22;7938;47.666;9.434;2023-03-01T07:58:31;0.90;99.90
15676;DHT22;7938;47.666;9.434;2023-03-01T08:01:03;0.90;99.90
15676;DHT22;7938;47.666;9.434;2023-03-01T08:03:44;0.90;99.90
15676;DHT22;7938;47.666;9.434;2023-03-01T08:06:12;1.00;99.90
15676;DHT22;7938;47.666;9.434;2023-03-01T08:08:40;0.90;99.90
15676;DHT22;7938;47.666;9.434;2023-03-01T08:11:09;0.90;99.90
15676;DHT22;7938;47.666;9.434;2023-03-01T08:13:37;0.90;99.90
15676;DHT22;7938;47.666;9.434;2023-03-01T08:16:06;0.90;99.90
15676;DHT22;7938;47.666;9.434;2023-03-01T08:18:33;1.00;99.90
15676;DHT22;7938;47.666;9.434;2023-03-01T08:21:05;1.00;99.90
15676;DHT22;7938;47.666;9.434;2023-03-01T08:23:32;1.00;99.90
15676;DHT22;7938;47.666;9.434;2023-03-01T08:26:08;1.00;99.90
15676;DHT22;7938;47.666;9.434;2023-03-01T08:28:35;1.00;99.90
15676;DHT22;7938;47.666;9.434;2023-03-01T08:31:03;1.00;99.90
15676;DHT22;7938;47.666;9.434;2023-03-01T08:33:30;1.10;99.90
15676;DHT22;7938;47.666;9.434;2023-03-01T08:36:04;1.10;99.90
15676;DHT22;7938;47.666;9.434;2023-03-01T08:38:32;1.40;99.90
15676;DHT22;7938;47.666;9.434;2023-03-01T08:41:00;1.10;99.90
15676;DHT22;7938;47.666;9.434;2023-03-01T08:43:29;1.10;99.90
15676;DHT22;7938;47.666;9.434;2023-03-01T08:45:56;1.10;99.90
15676;DHT22;7938;47.666;9.434;2023-03-01T08:48:23;1.10;99.90
15676;DHT22;7938;47.666;9.434;2023-03-01T08:50:50;1.10;99.90
15676;DHT22;7938;47.666;9.434;2023-03-01T08:53:17;1.10;99.90
15676;DHT22;7938;47.666;9.434;2023-03-01T08:55:44;1.10;99.90
15676;DHT22;7938;47.666;9.434;2023-03-01T08:58:12;1.10;99.90
15676;DHT22;7938;47.666;9.434;2023-03-01T09:00:41;1.20;99.90
15676;DHT22;7938;47.666;9.434;2023-03-01T09:03:08;1.20;99.90
15676;DHT22;7938;47.666;9.434;2023-03-01T09:05:35;1.20;99.90
15676;DHT22;7938;47.666;9.434;2023-03-01T09:08:02;1.30;99.90
15676;DHT22;7938;47.666;9.434;2023-03-01T09:10:29;1.50;99.90
15676;DHT22;7938;47.666;9.434;2023-03-01T09:12:56;1.50;99.90
15676;DHT22;7938;47.666;9.434;2023-03-01T09:15:23;1.50;99.90
15676;DHT22;7938;47.666;9.434;2023-03-01T09:17:51;1.60;99.90
15676;DHT22;7938;47.666;9.434;2023-03-01T09:20:18;1.60;99.90
15676;DHT22;7938;47.666;9.434;2023-03-01T09:22:45;1.60;99.90
15676;DHT22;7938;47.666;9.434;2023-03-01T09:25:12;1.60;99.90
15676;DHT22;7938;47.666;9.434;2023-03-01T09:27:39;1.60;99.90
15676;DHT22;7938;47.666;9.434;2023-03-01T09:30:07;1.60;99.90
15676;DHT22;7938;47.666;9.434;2023-03-01T09:32:34;1.70;99.90
15676;DHT22;7938;47.666;9.434;2023-03-01T09:35:03;1.70;99.90
15676;DHT22;7938;47.666;9.434;2023-03-01T09:37:34;1.80;99.90
15676;DHT22;7938;47.666;9.434;2023-03-01T09:40:01;1.80;99.90
15676;DHT22;7938;47.666;9.434;2023-03-01T09:42:31;1.80;99.90
15676;DHT22;7938;47.666;9.434;2023-03-01T09:45:03;1.80;99.90
15676;DHT22;7938;47.666;9.434;2023-03-01T09:47:32;1.80;99.90
15676;DHT22;7938;47.666;9.434;2023-03-01T09:50:04;1.90;99.90
15676;DHT22;7938;47.666;9.434;2023-03-01T09:52:38;2.00;99.90
15676;DHT22;7938;47.666;9.434;2023-03-01T09:55:10;2.00;99.90
15676;DHT22;7938;47.666;9.434;2023-03-01T09:57:43;2.10;99.90
15676;DHT22;7938;47.666;9.434;2023-03-01T10:00:30;2.10;99.90
15676;DHT22;7938;47.666;9.434;2023-03-01T10:03:06;2.10;99.90
15676;DHT22;7938;47.666;9.434;2023-03-01T10:05:46;2.20;99.90
15676;DHT22;7938;47.666;9.434;2023-03-01T10:08:30;2.20;99.90
15676;DHT22;7938;47.666;9.434;2023-03-01T10:11:02;2.20;99.90
15676;DHT22;7938;47.666;9.434;2023-03-01T10:13:34;2.20;99.90
15676;DHT22;7938;47.666;9.434;2023-03-01T10:16:10;2.20;99.90
15676;DHT22;7938;47.666;9.434;2023-03-01T10:18:39;2.20;99.90
15676;DHT22;7938;47.666;9.434;2023-03-01T10:21:14;2.10;99.90
15676;DHT22;7938;47.666;9.434;2023-03-01T10:23:42;2.10;99.90
15676;DHT22;7938;47.666;9.434;2023-03-01T10:26:30;2.00;99.90
15676;DHT22;7938;47.666;9.434;2023-03-01T10:29:03;1.90;99.90
15676;DHT22;7938;47.666;9.434;2023-03-01T10:31:38;1.90;99.90
15676;DHT22;7938;47.666;9.434;2023-03-01T10:34:13;1.90;99.90
15676;DHT22;7938;47.666;9.434;2023-03-01T10:36:43;2.00;99.90
15676;DHT22;7938;47.666;9.434;2023-03-01T10:39:14;2.00;99.90
15676;DHT22;7938;47.666;9.434;2023-03-01T10:41:56;2.00;99.90
15676;DHT22;7938;47.666;9.434;2023-03-01T10:44:50;2.00;99.90
15676;DHT22;7938;47.666;9.434;2023-03-01T10:47:19;2.00;99.90
15676;DHT22;7938;47.666;9.434;2023-03-01T10:49:59;2.20;99.90
15676;DHT22;7938;47.666;9.434;2023-03-01T10:52:33;2.20;99.90
15676;DHT22;7938;47.666;9.434;2023-03-01T10:55:03;2.30;99.90
15676;DHT22;7938;47.666;9.434;2023-03-01T10:57:36;2.20;99.90
15676;DHT22;7938;47.666;9.434;2023-03-01T11:00:22;2.10;99.90
15676;DHT22;7938;47.666;9.434;2023-03-01T11:03:01;2.10;99.90
15676;DHT22;7938;47.666;9.434;2023-03-01T11:05:29;2.20;99.90
15676;DHT22;7938;47.666;9.434;2023-03-01T11:08:01;2.10;99.90
15676;DHT22;7938;47.666;9.434;2023-03-01T11:10:31;2.10;99.90
15676;DHT22;7938;47.666;9.434;2023-03-01T11:13:08;2.10;99.90
15676;DHT22;7938;47.666;9.434;2023-03-01T11:15:40;2.20;99.90
15676;DHT22;7938;47.666;9.434;2023-03-01T11:18:18;2.30;99.90
15676;DHT22;7938;47.666;9.434;2023-03-01T11:20:46;2.30;99.90
15676;DHT22;7938;47.666;9.434;2023-03-01T11:23:15;2.40;99.90
15676;DHT22;7938;47.666;9.434;2023-03-01T11:25:47;2.50;99.90
15676;DHT22;7938;47.666;9.434;2023-03-01T11:28:17;2.70;99.90
15676;DHT22;7938;47.666;9.434;2023-03-01T11:30:53;2.60;99.90
15676;DHT22;7938;47.666;9.434;2023-03-01T11:33:33;2.60;99.90
15676;DHT22;7938;47.666;9.434;2023-03-01T11:36:05;2.50;99.90
15676;DHT22;7938;47.666;9.434;2023-03-01T11:38:37;2.50;99.90
15676;DHT22;7938;47.666;9.434;2023-03-01T11:41:08;2.50;99.90
15676;DHT22;7938;47.666;9.434;2023-03-01T11:43:45;2.50;99.90
15676;DHT22;7938;47.666;9.434;2023-03-01T11:46:42;2.50;99.90
15676;DHT22;7938;47.666;9.434;2023-03-01T11:49:29;2.50;99.90
15676;DHT22;7938;47.666;9.434;2023-03-01T11:52:05;2.40;99.90
15676;DHT22;7938;47.666;9.434;2023-03-01T11:54:49;2.40;99.90
15676;DHT22;7938;47.666;9.434;2023-03-01T11:57:42;2.50;99.90
15676;DHT22;7938;47.666;9.434;2023-03-01T12:00:26;2.50;99.90
15676;DHT22;7938;47.666;9.434;2023-03-01T12:03:21;2.50;99.90
15676;DHT22;7938;47.666;9.434;2023-03-01T12:09:04;2.30;99.90
15676;DHT22;7938;47.666;9.434;2023-03-01T12:12:00;2.20;99.90
15676;DHT22;7938;47.666;9.434;2023-03-01T12:14:39;2.30;99.90
15676;DHT22;7938;47.666;9.434;2023-03-01T12:20:18;2.40;99.90
15676;DHT22;7938;47.666;9.434;2023-03-01T12:23:01;2.20;99.90
15676;DHT22;7938;47.666;9.434;2023-03-01T12:25:35;2.10;99.90
15676;DHT22;7938;47.666;9.434;2023-03-01T12:34:24;2.30;99.90
15676;DHT22;7938;47.666;9.434;2023-03-01T12:37:11;2.40;99.90
15676;DHT22;7938;47.666;9.434;2023-03-01T12:39:51;2.40;99.90
15676;DHT22;7938;47.666;9.434;2023-03-01T12:42:27;2.30;99.90
15676;DHT22;7938;47.666;9.434;2023-03-01T12:45:12;2.30;99.90
15676;DHT22;7938;47.666;9.434;2023-03-01T12:48:00;2.50;99.90
15676;DHT22;7938;47.666;9.434;2023-03-01T12:50:39;2.50;99.90
15676;DHT22;7938;47.666;9.434;2023-03-01T12:53:24;2.40;99.90
15676;DHT22;7938;47.666;9.434;2023-03-01T12:55:54;2.50;99.90
15676;DHT22;7938;47.666;9.434;2023-03-01T12:58:27;2.50;99.90
15676;DHT22;7938;47.666;9.434;2023-03-01T13:01:08;2.60;99.90
15676;DHT22;7938;47.666;9.434;2023-03-01T13:03:55;2.60;99.90
15676;DHT22;7938;47.666;9.434;2023-03-01T13:06:32;2.70;99.90
15676;DHT22;7938;47.666;9.434;2023-03-01T13:09:10;2.60;99.90
15676;DHT22;7938;47.666;9.434;2023-03-01T13:11:42;3.30;99.90
15676;DHT22;7938;47.666;9.434;2023-03-01T13:14:37;2.60;99.90
15676;DHT22;7938;47.666;9.434;2023-03-01T13:17:39;2.80;99.90
15676;DHT22;7938;47.666;9.434;2023-03-01T13:20:19;3.00;99.90
15676;DHT22;7938;47.666;9.434;2023-03-01T13:22:48;3.10;99.90
15676;DHT22;7938;47.666;9.434;2023-03-01T13:25:27;3.20;99.90
15676;DHT22;7938;47.666;9.434;2023-03-01T13:31:05;3.10;99.90
15676;DHT22;7938;47.666;9.434;2023-03-01T13:33:40;3.10;99.90
15676;DHT22;7938;47.666;9.434;2023-03-01T13:36:09;3.20;99.90
15676;DHT22;7938;47.666;9.434;2023-03-01T13:38:47;3.20;99.90
15676;DHT22;7938;47.666;9.434;2023-03-01T13:41:16;3.30;99.90
15676;DHT22;7938;47.666;9.434;2023-03-01T13:43:45;3.30;99.90
15676;DHT22;7938;47.666;9.434;2023-03-01T13:46:20;3.10;99.90
15676;DHT22;7938;47.666;9.434;2023-03-01T13:48:50;2.90;99.90
15676;DHT22;7938;47.666;9.434;2023-03-01T13:51:23;3.30;99.90
15676;DHT22;7938;47.666;9.434;2023-03-01T13:53:52;3.30;99.90
15676;DHT22;7938;47.666;9.434;2023-03-01T13:56:24;3.30;99.90
15676;DHT22;7938;47.666;9.434;2023-03-01T13:58:53;3.40;99.90
15676;DHT22;7938;47.666;9.434;2023-03-01T14:01:29;3.30;99.90
15676;DHT22;7938;47.666;9.434;2023-03-01T14:04:00;3.40;99.90
15676;DHT22;7938;47.666;9.434;2023-03-01T14:06:29;3.30;99.90
15676;DHT22;7938;47.666;9.434;2023-03-01T14:09:21;3.10;99.90
15676;DHT22;7938;47.666;9.434;2023-03-01T14:12:08;2.90;99.90
15676;DHT22;7938;47.666;9.434;2023-03-01T14:14:48;3.00;99.90
15676;DHT22;7938;47.666;9.434;2023-03-01T14:20:37;3.10;99.90
15676;DHT22;7938;47.666;9.434;2023-03-01T14:23:11;3.10;99.90
15676;DHT22;7938;47.666;9.434;2023-03-01T14:25:47;3.00;99.90
15676;DHT22;7938;47.666;9.434;2023-03-01T14:28:19;2.80;99.90
15676;DHT22;7938;47.666;9.434;2023-03-01T14:30:48;3.10;99.90
15676;DHT22;7938;47.666;9.434;2023-03-01T14:33:22;3.10;99.90
15676;DHT22;7938;47.666;9.434;2023-03-01T14:36:04;3.20;99.90
15676;DHT22;7938;47.666;9.434;2023-03-01T14:38:33;3.20;99.90
15676;DHT22;7938;47.666;9.434;2023-03-01T14:41:06;3.30;99.90
15676;DHT22;7938;47.666;9.434;2023-03-01T14:43:35;3.30;99.90
15676;DHT22;7938;47.666;9.434;2023-03-01T14:46:04;3.30;99.90
15676;DHT22;7938;47.666;9.434;2023-03-01T14:48:32;3.10;99.90
15676;DHT22;7938;47.666;9.434;2023-03-01T14:51:05;3.10;99.90
15676;DHT22;7938;47.666;9.434;2023-03-01T14:53:34;3.00;99.90
15676;DHT22;7938;47.666;9.434;2023-03-01T14:56:02;3.00;99.90
15676;DHT22;7938;47.666;9.434;2023-03-01T14:58:33;3.00;99.90
15676;DHT22;7938;47.666;9.434;2023-03-01T15:01:03;3.00;99.90
15676;DHT22;7938;47.666;9.434;2023-03-01T15:03:34;2.90;99.90
15676;DHT22;7938;47.666;9.434;2023-03-01T15:06:06;2.80;99.90
15676;DHT22;7938;47.666;9.434;2023-03-01T15:08:35;2.90;99.90
15676;DHT22;7938;47.666;9.434;2023-03-01T15:11:15;2.90;99.90
15676;DHT22;7938;47.666;9.434;2023-03-01T15:13:44;2.90;99.90
15676;DHT22;7938;47.666;9.434;2023-03-01T15:16:14;3.00;99.90
15676;DHT22;7938;47.666;9.434;2023-03-01T15:18:45;3.00;99.90
15676;DHT22;7938;47.666;9.434;2023-03-01T15:21:19;2.90;99.90
15676;DHT22;7938;47.666;9.434;2023-03-01T15:23:50;2.80;99.90
15676;DHT22;7938;47.666;9.434;2023-03-01T15:26:29;2.90;99.90
15676;DHT22;7938;47.666;9.434;2023-03-01T15:28:58;2.80;99.90
15676;DHT22;7938;47.666;9.434;2023-03-01T15:31:28;2.80;99.90
15676;DHT22;7938;47.666;9.434;2023-03-01T15:34:21;2.80;99.90
15676;DHT22;7938;47.666;9.434;2023-03-01T15:36:51;2.80;99.90
15676;DHT22;7938;47.666;9.434;2023-03-01T15:39:38;2.90;99.90
15676;DHT22;7938;47.666;9.434;2023-03-01T15:42:10;2.70;99.90
15676;DHT22;7938;47.666;9.434;2023-03-01T15:44:39;2.70;99.90
15676;DHT22;7938;47.666;9.434;2023-03-01T15:47:25;2.60;99.90
15676;DHT22;7938;47.666;9.434;2023-03-01T15:49:54;2.60;99.90
15676;DHT22;7938;47.666;9.434;2023-03-01T15:52:25;2.60;99.90
15676;DHT22;7938;47.666;9.434;2023-03-01T15:54:57;2.50;99.90
15676;DHT22;7938;47.666;9.434;2023-03-01T15:57:25;2.50;99.90
15676;DHT22;7938;47.666;9.434;2023-03-01T15:59:53;2.50;99.90
15676;DHT22;7938;47.666;9.434;2023-03-01T16:02:21;2.30;99.90
15676;DHT22;7938;47.666;9.434;2023-03-01T16:04:50;2.20;99.90
15676;DHT22;7938;47.666;9.434;2023-03-01T16:07:19;2.20;99.90
15676;DHT22;7938;47.666;9.434;2023-03-01T16:09:48;2.30;99.90
15676;DHT22;7938;47.666;9.434;2023-03-01T16:12:16;2.40;99.90
15676;DHT22;7938;47.666;9.434;2023-03-01T16:14:47;2.40;99.90
15676;DHT22;7938;47.666;9.434;2023-03-01T16:17:15;2.40;99.90
15676;DHT22;7938;47.666;9.434;2023-03-01T16:19:43;2.30;99.90
15676;DHT22;7938;47.666;9.434;2023-03-01T16:22:11;2.30;99.90
15676;DHT22;7938;47.666;9.434;2023-03-01T16:24:38;2.20;99.90
15676;DHT22;7938;47.666;9.434;2023-03-01T16:27:08;2.20;99.90
15676;DHT22;7938;47.666;9.434;2023-03-01T16:29:36;2.20;99.90
15676;DHT22;7938;47.666;9.434;2023-03-01T16:32:04;2.10;99.90
15676;DHT22;7938;47.666;9.434;2023-03-01T16:34:32;2.20;99.90
15676;DHT22;7938;47.666;9.434;2023-03-01T16:37:00;2.20;99.90
15676;DHT22;7938;47.666;9.434;2023-03-01T16:39:27;2.20;99.90
15676;DHT22;7938;47.666;9.434;2023-03-01T16:41:55;2.20;99.90
15676;DHT22;7938;47.666;9.434;2023-03-01T16:44:25;2.20;99.90
15676;DHT22;7938;47.666;9.434;2023-03-01T16:46:53;2.20;99.90
15676;DHT22;7938;47.666;9.434;2023-03-01T16:49:21;2.20;99.90
15676;DHT22;7938;47.666;9.434;2023-03-01T16:51:48;2.30;99.90
15676;DHT22;7938;47.666;9.434;2023-03-01T16:54:16;2.30;99.90
15676;DHT22;7938;47.666;9.434;2023-03-01T16:56:44;2.30;99.90
15676;DHT22;7938;47.666;9.434;2023-03-01T16:59:11;2.30;99.90
15676;DHT22;7938;47.666;9.434;2023-03-01T17:01:41;2.20;99.90
15676;DHT22;7938;47.666;9.434;2023-03-01T17:04:11;2.10;99.90
15676;DHT22;7938;47.666;9.434;2023-03-01T17:06:40;2.10;99.90
15676;DHT22;7938;47.666;9.434;2023-03-01T17:09:07;2.00;99.90
15676;DHT22;7938;47.666;9.434;2023-03-01T17:11:35;2.00;99.90
15676;DHT22;7938;47.666;9.434;2023-03-01T17:14:03;2.00;99.90
15676;DHT22;7938;47.666;9.434;2023-03-01T17:16:30;2.00;99.90
15676;DHT22;7938;47.666;9.434;2023-03-01T17:19:00;2.00;99.90
15676;DHT22;7938;47.666;9.434;2023-03-01T17:21:28;2.00;99.90
15676;DHT22;7938;47.666;9.434;2023-03-01T17:23:57;2.00;99.90
15676;DHT22;7938;47.666;9.434;2023-03-01T17:26:26;2.00;99.90
15676;DHT22;7938;47.666;9.434;2023-03-01T17:28:54;2.00;99.90
15676;DHT22;7938;47.666;9.434;2023-03-01T17:31:23;2.00;99.90
15676;DHT22;7938;47.666;9.434;2023-03-01T17:33:52;2.00;99.90
15676;DHT22;7938;47.666;9.434;2023-03-01T17:36:21;2.00;99.90
15676;DHT22;7938;47.666;9.434;2023-03-01T17:38:49;1.90;99.90
15676;DHT22;7938;47.666;9.434;2023-03-01T17:41:17;1.90;99.90
15676;DHT22;7938;47.666;9.434;2023-03-01T17:43:46;1.90;99.90
15676;DHT22;7938;47.666;9.434;2023-03-01T17:46:14;1.90;99.90
15676;DHT22;7938;47.666;9.434;2023-03-01T17:48:43;1.90;99.90
15676;DHT22;7938;47.666;9.434;2023-03-01T17:51:11;1.90;99.90
15676;DHT22;7938;47.666;9.434;2023-03-01T17:53:40;1.90;99.90
15676;DHT22;7938;47.666;9.434;2023-03-01T17:56:09;1.80;99.90
15676;DHT22;7938;47.666;9.434;2023-03-01T17:58:37;1.80;99.90
15676;DHT22;7938;47.666;9.434;2023-03-01T18:01:11;1.90;99.90
15676;DHT22;7938;47.666;9.434;2023-03-01T18:03:42;1.90;99.90
15676;DHT22;7938;47.666;9.434;2023-03-01T18:06:11;1.90;99.90
15676;DHT22;7938;47.666;9.434;2023-03-01T18:08:41;1.90;99.90
15676;DHT22;7938;47.666;9.434;2023-03-01T18:11:11;1.90;99.90
15676;DHT22;7938;47.666;9.434;2023-03-01T18:13:41;1.90;99.90
15676;DHT22;7938;47.666;9.434;2023-03-01T18:16:11;1.90;99.90
15676;DHT22;7938;47.666;9.434;2023-03-01T18:18:40;1.90;99.90
15676;DHT22;7938;47.666;9.434;2023-03-01T18:21:10;1.90;99.90
15676;DHT22;7938;47.666;9.434;2023-03-01T18:23:41;1.90;99.90
15676;DHT22;7938;47.666;9.434;2023-03-01T18:26:11;1.90;99.90
15676;DHT22;7938;47.666;9.434;2023-03-01T18:28:43;1.90;99.90
15676;DHT22;7938;47.666;9.434;2023-03-01T18:31:14;1.90;99.90
15676;DHT22;7938;47.666;9.434;2023-03-01T18:33:44;1.90;99.90
15676;DHT22;7938;47.666;9.434;2023-03-01T18:36:18;1.90;99.90
15676;DHT22;7938;47.666;9.434;2023-03-01T18:38:49;1.80;99.90
15676;DHT22;7938;47.666;9.434;2023-03-01T18:41:19;1.80;99.90
15676;DHT22;7938;47.666;9.434;2023-03-01T18:43:47;1.80;99.90
15676;DHT22;7938;47.666;9.434;2023-03-01T18:46:16;1.80;99.90
15676;DHT22;7938;47.666;9.434;2023-03-01T18:48:46;1.80;99.90
15676;DHT22;7938;47.666;9.434;2023-03-01T18:51:15;1.80;99.90
15676;DHT22;7938;47.666;9.434;2023-03-01T18:53:44;1.80;99.90
15676;DHT22;7938;47.666;9.434;2023-03-01T18:56:14;1.70;99.90
15676;DHT22;7938;47.666;9.434;2023-03-01T18:58:43;1.70;99.90
15676;DHT22;7938;47.666;9.434;2023-03-01T19:01:13;1.70;99.90
15676;DHT22;7938;47.666;9.434;2023-03-01T19:03:42;1.70;99.90
15676;DHT22;7938;47.666;9.434;2023-03-01T19:06:10;1.70;99.90
15676;DHT22;7938;47.666;9.434;2023-03-01T19:08:38;1.70;99.90
15676;DHT22;7938;47.666;9.434;2023-03-01T19:11:09;1.70;99.90
15676;DHT22;7938;47.666;9.434;2023-03-01T19:13:40;1.70;99.90
15676;DHT22;7938;47.666;9.434;2023-03-01T19:16:10;1.70;99.90
15676;DHT22;7938;47.666;9.434;2023-03-01T19:18:40;1.70;99.90
15676;DHT22;7938;47.666;9.434;2023-03-01T19:21:10;1.60;99.90
15676;DHT22;7938;47.666;9.434;2023-03-01T19:23:38;1.60;99.90
15676;DHT22;7938;47.666;9.434;2023-03-01T19:26:08;1.60;99.90
15676;DHT22;7938;47.666;9.434;2023-03-01T19:28:39;1.60;99.90
15676;DHT22;7938;47.666;9.434;2023-03-01T19:31:11;1.60;99.90
15676;DHT22;7938;47.666;9.434;2023-03-01T19:33:39;1.60;99.90
15676;DHT22;7938;47.666;9.434;2023-03-01T19:36:08;1.60;99.90
15676;DHT22;7938;47.666;9.434;2023-03-01T19:38:37;1.60;99.90
15676;DHT22;7938;47.666;9.434;2023-03-01T19:41:09;1.60;99.90
15676;DHT22;7938;47.666;9.434;2023-03-01T19:43:39;2.50;99.90
15676;DHT22;7938;47.666;9.434;2023-03-01T19:46:09;1.60;99.90
15676;DHT22;7938;47.666;9.434;2023-03-01T19:48:38;1.60;99.90
15676;DHT22;7938;47.666;9.434;2023-03-01T19:51:07;1.60;99.90
15676;DHT22;7938;47.666;9.434;2023-03-01T19:53:38;1.60;99.90
15676;DHT22;7938;47.666;9.434;2023-03-01T19:56:07;1.70;99.90
15676;DHT22;7938;47.666;9.434;2023-03-01T19:58:35;1.70;99.90
15676;DHT22;7938;47.666;9.434;2023-03-01T20:01:03;1.70;99.90
15676;DHT22;7938;47.666;9.434;2023-03-01T20:03:33;1.70;99.90
15676;DHT22;7938;47.666;9.434;2023-03-01T20:06:08;1.70;99.90
15676;DHT22;7938;47.666;9.434;2023-03-01T20:08:35;1.70;99.90
15676;DHT22;7938;47.666;9.434;2023-03-01T20:11:04;1.70;99.90
15676;DHT22;7938;47.666;9.434;2023-03-01T20:13:31;1.70;99.90
15676;DHT22;7938;47.666;9.434;2023-03-01T20:15:59;1.70;99.90
15676;DHT22;7938;47.666;9.434;2023-03-01T20:18:28;1.80;99.90
15676;DHT22;7938;47.666;9.434;2023-03-01T20:20:55;1.80;99.90
15676;DHT22;7938;47.666;9.434;2023-03-01T20:23:24;2.10;99.90
15676;DHT22;7938;47.666;9.434;2023-03-01T20:25:59;1.80;99.90
15676;DHT22;7938;47.666;9.434;2023-03-01T20:28:26;1.80;99.90
15676;DHT22;7938;47.666;9.434;2023-03-01T20:30:54;1.70;99.90
15676;DHT22;7938;47.666;9.434;2023-03-01T20:33:21;1.70;99.90
15676;DHT22;7938;47.666;9.434;2023-03-01T20:35:49;1.70;99.90
15676;DHT22;7938;47.666;9.434;2023-03-01T20:38:16;1.70;99.90
15676;DHT22;7938;47.666;9.434;2023-03-01T20:40:44;1.70;99.90
15676;DHT22;7938;47.666;9.434;2023-03-01T20:43:11;1.70;99.90
15676;DHT22;7938;47.666;9.434;2023-03-01T20:45:38;1.70;99.90
15676;DHT22;7938;47.666;9.434;2023-03-01T20:48:05;1.70;99.90
15676;DHT22;7938;47.666;9.434;2023-03-01T20:50:32;1.70;99.90
15676;DHT22;7938;47.666;9.434;2023-03-01T20:53:01;1.70;99.90
15676;DHT22;7938;47.666;9.434;2023-03-01T20:55:28;1.70;99.90
15676;DHT22;7938;47.666;9.434;2023-03-01T20:57:56;1.70;99.90
15676;DHT22;7938;47.666;9.434;2023-03-01T21:00:23;1.70;99.90
15676;DHT22;7938;47.666;9.434;2023-03-01T21:02:51;1.70;99.90
15676;DHT22;7938;47.666;9.434;2023-03-01T21:05:19;1.70;99.90
15676;DHT22;7938;47.666;9.434;2023-03-01T21:07:48;1.80;99.90
15676;DHT22;7938;47.666;9.434;2023-03-01T21:10:17;1.80;99.90
15676;DHT22;7938;47.666;9.434;2023-03-01T21:12:45;1.80;99.90
15676;DHT22;7938;47.666;9.434;2023-03-01T21:15:12;1.80;99.90
15676;DHT22;7938;47.666;9.434;2023-03-01T21:17:39;1.80;99.90
15676;DHT22;7938;47.666;9.434;2023-03-01T21:20:07;1.90;99.90
15676;DHT22;7938;47.666;9.434;2023-03-01T21:22:36;1.90;99.90
15676;DHT22;7938;47.666;9.434;2023-03-01T21:25:04;1.90;99.90
15676;DHT22;7938;47.666;9.434;2023-03-01T21:27:36;1.90;99.90
15676;DHT22;7938;47.666;9.434;2023-03-01T21:30:04;1.90;99.90
15676;DHT22;7938;47.666;9.434;2023-03-01T21:32:31;1.90;99.90
15676;DHT22;7938;47.666;9.434;2023-03-01T21:34:58;1.90;99.90
15676;DHT22;7938;47.666;9.434;2023-03-01T21:37:25;1.90;99.90
15676;DHT22;7938;47.666;9.434;2023-03-01T21:39:52;1.90;99.90
15676;DHT22;7938;47.666;9.434;2023-03-01T21:42:19;1.90;99.90
15676;DHT22;7938;47.666;9.434;2023-03-01T21:44:47;1.90;99.90
15676;DHT22;7938;47.666;9.434;2023-03-01T21:47:14;1.90;99.90
15676;DHT22;7938;47.666;9.434;2023-03-01T21:49:41;1.90;99.90
15676;DHT22;7938;47.666;9.434;2023-03-01T21:52:08;2.00;99.90
15676;DHT22;7938;47.666;9.434;2023-03-01T21:54:41;1.90;99.90